Terminal Aerodrome Forecast
Issued by NWS

Current Version | Previous Version | Text Only | Print | Product List | Glossary On
Versions: 1 2 3 4 5 6 7 8 9 10 11 12
535
FTUS46 KHNX 220547
TAFVIS
TAF
KVIS 220547Z 2206/2306 VRB03KT P6SM SKC
     FM221200 15003KT P6SM FEW200
     FM221800 25006KT P6SM BKN100
     FM222200 30010KT P6SM BKN050 PROB30 2300/2306 -SHRA=

USA.gov is the U.S. government's official web portal to all federal, state and local government web resources and services.